Time;durP1;ratioP1;P1;durP2;ratioP2;P2;SDS_P1;SDS_P2;PMS_P1;PMS_P2;Temp;Humidity;BMP_temperature;BMP_pressure;BME280_temperature;BME280_humidity;BME280_pressure;Samples;Min_cycle;Max_cycle;Signal;HPM_P1;HPM_P2
2023/03/18 00:01:39;;;;;;;7.13;6.18;;;;;;;2.14;53.10;94201.66;5009606;28;20048;-76
2023/03/18 00:04:05;;;;;;;6.80;4.95;;;;;;;1.87;53.36;94172.81;5010653;28;20038;-77
2023/03/18 00:06:30;;;;;;;6.13;5.05;;;;;;;2.15;52.96;94197.97;4990338;28;20037;-76
2023/03/18 00:08:57;;;;;;;7.88;5.30;;;;;;;2.06;53.88;94207.34;5009505;28;20037;-77
2023/03/18 00:11:22;;;;;;;6.43;4.55;;;;;;;2.21;53.35;94212.72;5010038;28;20040;-77
2023/03/18 00:13:48;;;;;;;4.95;3.80;;;;;;;1.87;53.53;94169.41;4997046;28;20042;-76
2023/03/18 00:16:14;;;;;;;5.70;3.78;;;;;;;2.04;53.33;94188.44;5011601;28;20569;-77
2023/03/18 00:18:41;;;;;;;5.03;3.63;;;;;;;2.02;53.29;94185.25;5010976;28;20045;-77
2023/03/18 00:21:07;;;;;;;6.05;4.07;;;;;;;2.11;53.37;94196.88;5012195;28;20025;-76
2023/03/18 00:23:33;;;;;;;5.05;3.45;;;;;;;2.02;53.19;94185.25;5014180;28;20117;-78
2023/03/18 00:26:00;;;;;;;5.47;4.05;;;;;;;2.10;53.16;94197.94;5012829;28;20100;-76
2023/03/18 00:28:26;;;;;;;4.45;3.53;;;;;;;2.11;53.04;94196.88;5011730;28;21040;-76
2023/03/18 00:30:53;;;;;;;6.30;3.42;;;;;;;2.03;53.08;94173.75;5013785;28;20033;-78
2023/03/18 00:33:19;;;;;;;5.75;4.05;;;;;;;2.11;53.10;94189.00;5012112;28;20029;-77
2023/03/18 00:35:46;;;;;;;6.88;4.07;;;;;;;2.09;53.31;94196.34;5014616;28;20466;-77
2023/03/18 00:38:23;;;;;;;6.82;3.50;;;;;;;2.05;53.27;94190.03;5015453;28;20037;-77
2023/03/18 00:41:00;;;;;;;5.10;3.42;;;;;;;1.97;53.18;94179.97;5010316;28;20070;-78
2023/03/18 00:43:28;;;;;;;4.90;3.03;;;;;;;2.14;52.91;94191.16;5013710;28;20033;-76
2023/03/18 00:45:55;;;;;;;7.70;4.10;;;;;;;2.01;53.04;94176.59;5007639;28;20049;-77
2023/03/18 00:48:22;;;;;;;5.30;4.05;;;;;;;2.04;53.13;94173.50;5011851;28;20503;-76
2023/03/18 00:50:48;;;;;;;5.75;4.07;;;;;;;1.73;53.02;94123.63;5012394;28;20061;-77
2023/03/18 00:53:14;;;;;;;4.90;3.50;;;;;;;2.11;52.92;94173.25;5016379;28;20149;-76
2023/03/18 00:55:40;;;;;;;5.18;3.78;;;;;;;2.05;52.97;94150.69;5013688;28;20034;-77
2023/03/18 00:58:07;;;;;;;5.28;4.10;;;;;;;2.01;53.05;94167.97;5013454;28;20037;-76
2023/03/18 01:00:34;;;;;;;6.47;3.65;;;;;;;1.87;53.27;94153.66;5013062;28;20037;-77
2023/03/18 01:03:00;;;;;;;8.05;4.10;;;;;;;1.96;53.34;94160.06;5011791;28;20034;-76
2023/03/18 01:05:26;;;;;;;8.40;5.05;;;;;;;1.96;53.20;94154.81;5012052;28;20021;-77
2023/03/18 01:07:52;;;;;;;6.63;4.60;;;;;;;1.82;53.28;94128.16;5011456;28;20040;-76
2023/03/18 01:10:18;;;;;;;5.07;3.97;;;;;;;2.05;53.42;94164.59;5000140;28;20037;-76
2023/03/18 01:12:46;;;;;;;5.13;4.00;;;;;;;2.01;53.05;94133.88;4993876;28;20883;-77
2023/03/18 01:15:15;;;;;;;7.97;4.82;;;;;;;2.01;53.11;94153.00;5014195;28;20037;-77
2023/03/18 01:17:41;;;;;;;7.88;5.38;;;;;;;1.86;53.54;94138.97;5012584;28;20018;-78
2023/03/18 01:20:10;;;;;;;10.38;5.13;;;;;;;1.91;53.48;94149.53;5000690;28;20041;-77
2023/03/18 01:22:36;;;;;;;10.85;6.20;;;;;;;1.63;53.34;94114.66;5010758;28;20038;-76
2023/03/18 01:25:02;;;;;;;10.98;5.60;;;;;;;1.91;53.57;94152.16;5011504;28;20049;-76
2023/03/18 01:27:27;;;;;;;10.95;6.07;;;;;;;1.80;53.41;94134.72;5009306;28;20045;-78
2023/03/18 01:29:53;;;;;;;12.10;6.97;;;;;;;1.98;53.20;94152.72;5014487;28;20272;-76
2023/03/18 01:32:19;;;;;;;6.85;5.18;;;;;;;1.84;52.93;94128.72;5009921;28;20033;-77
2023/03/18 01:34:45;;;;;;;9.98;6.72;;;;;;;1.91;53.29;94146.91;5011465;28;20036;-76
2023/03/18 01:37:10;;;;;;;7.55;5.78;;;;;;;1.72;53.16;94104.47;5009898;28;20033;-77
2023/03/18 01:39:36;;;;;;;9.02;6.32;;;;;;;1.86;53.21;94134.50;5012129;28;20032;-78
2023/03/18 01:42:02;;;;;;;8.07;6.05;;;;;;;1.68;53.40;94121.75;5012061;28;20038;-77
2023/03/18 01:44:28;;;;;;;7.50;4.95;;;;;;;1.76;53.78;94123.94;5012922;28;20052;-77
2023/03/18 01:46:54;;;;;;;6.75;5.22;;;;;;;1.68;53.69;94111.28;4994908;28;20148;-77
2023/03/18 01:49:24;;;;;;;7.93;5.25;;;;;;;1.79;53.73;94146.22;5016183;28;20056;-77
2023/03/18 01:52:01;;;;;;;9.82;6.35;;;;;;;1.62;53.87;94117.50;4997825;28;20464;-78
2023/03/18 01:54:30;;;;;;;14.88;9.18;;;;;;;1.85;53.53;94142.63;5012337;28;20049;-77
2023/03/18 01:56:56;;;;;;;27.20;14.10;;;;;;;1.79;53.47;94139.16;4995329;28;20136;-77
2023/03/18 01:59:25;;;;;;;30.40;16.55;;;;;;;1.87;53.32;94135.31;5008725;28;20383;-76
2023/03/18 02:02:12;;;;;;;32.25;17.25;;;;;;;1.53;53.33;94080.47;5013168;28;20041;-77
2023/03/18 02:04:43;;;;;;;20.58;12.15;;;;;;;1.75;53.43;94134.66;5011082;28;20040;-77
2023/03/18 02:07:30;;;;;;;21.17;12.10;;;;;;;1.73;53.68;94139.34;5010146;28;20076;-77
2023/03/18 02:09:58;;;;;;;21.30;12.75;;;;;;;1.15;53.96;94059.72;4993000;28;20037;-78
2023/03/18 02:12:37;;;;;;;18.15;11.70;;;;;;;1.53;54.13;94132.91;4994452;28;20181;-78
2023/03/18 02:15:10;;;;;;;17.30;11.23;;;;;;;1.52;53.93;94117.44;5012781;28;20061;-78
2023/03/18 02:17:40;;;;;;;14.80;10.23;;;;;;;1.26;54.03;94077.09;5013489;28;20025;-76
2023/03/18 02:20:33;;;;;;;10.70;7.97;;;;;;;1.57;54.03;94131.38;5009564;28;20030;-77
2023/03/18 02:23:24;;;;;;;7.43;6.15;;;;;;;1.59;53.89;94129.28;5009939;28;20053;-76
2023/03/18 02:25:52;;;;;;;6.40;5.30;;;;;;;1.61;53.97;94121.97;4998183;28;20061;-77
2023/03/18 02:28:25;;;;;;;7.70;6.15;;;;;;;1.39;53.84;94100.28;5012094;28;20044;-77
2023/03/18 02:30:57;;;;;;;12.05;7.30;;;;;;;1.27;53.96;94078.69;5010989;28;20341;-77
2023/03/18 02:33:26;;;;;;;11.98;7.72;;;;;;;1.56;53.83;94123.75;5010406;28;20080;-78
2023/03/18 02:36:01;;;;;;;9.35;6.50;;;;;;;1.53;53.86;94101.44;5016102;28;20025;-78
2023/03/18 02:38:27;;;;;;;9.73;5.95;;;;;;;1.57;53.65;94120.88;4990693;28;20058;-76
2023/03/18 02:40:52;;;;;;;7.75;5.07;;;;;;;1.48;53.99;94127.63;5010925;28;20425;-78
2023/03/18 02:43:24;;;;;;;7.25;5.60;;;;;;;1.31;54.08;94100.75;4994352;28;21115;-76
2023/03/18 02:45:56;;;;;;;9.88;5.60;;;;;;;1.55;53.95;94128.22;5011480;28;20137;-78
2023/03/18 02:48:26;;;;;;;9.27;5.95;;;;;;;1.39;53.57;94096.88;5008781;28;20041;-77
2023/03/18 02:50:53;;;;;;;8.07;4.75;;;;;;;1.42;53.46;94101.63;5011671;28;20469;-78
2023/03/18 02:53:19;;;;;;;7.20;4.93;;;;;;;1.39;53.26;94094.25;5008702;28;20124;-77
2023/03/18 02:55:45;;;;;;;7.22;5.43;;;;;;;1.21;53.29;94074.44;5008137;28;20088;-75
2023/03/18 02:58:11;;;;;;;7.20;5.57;;;;;;;1.25;53.50;94106.97;5010624;28;20040;-76
2023/03/18 03:00:37;;;;;;;7.07;5.13;;;;;;;1.29;53.63;94108.03;5011754;28;20042;-78
2023/03/18 03:03:04;;;;;;;6.40;5.72;;;;;;;1.37;53.46;94105.00;5008160;28;20076;-77
2023/03/18 03:05:32;;;;;;;10.38;5.63;;;;;;;1.48;53.16;94111.88;4994026;28;20017;-77
2023/03/18 03:07:58;;;;;;;8.25;5.78;;;;;;;1.33;53.15;94103.88;5011359;28;20037;-77
2023/03/18 03:10:23;;;;;;;8.77;6.05;;;;;;;1.33;53.40;94109.13;5010684;28;20085;-76
2023/03/18 03:12:49;;;;;;;16.77;8.90;;;;;;;1.21;53.87;94095.41;4995851;28;20041;-76
2023/03/18 03:15:14;;;;;;;12.68;7.95;;;;;;;1.38;53.92;94124.09;5008328;28;20021;-77
2023/03/18 03:17:40;;;;;;;15.23;9.70;;;;;;;1.37;54.06;94123.34;5011148;28;20035;-77
2023/03/18 03:20:07;;;;;;;15.35;9.32;;;;;;;1.17;54.18;94094.31;5009932;28;20048;-77
2023/03/18 03:22:33;;;;;;;12.98;8.43;;;;;;;1.34;53.95;94120.41;5011346;28;20041;-76
2023/03/18 03:25:00;;;;;;;11.50;7.05;;;;;;;1.20;53.89;94125.25;5008617;28;20045;-76
2023/03/18 03:27:26;;;;;;;15.57;8.55;;;;;;;1.18;54.15;94119.50;4993852;28;20040;-77
2023/03/18 03:29:52;;;;;;;18.08;10.68;;;;;;;1.28;54.08;94135.28;4994607;28;20030;-77
2023/03/18 03:32:18;;;;;;;15.88;11.05;;;;;;;1.13;54.10;94120.19;5008404;28;20509;-77
2023/03/18 03:34:44;;;;;;;18.60;13.40;;;;;;;1.19;54.61;94134.16;5011048;28;20044;-76
2023/03/18 03:37:09;;;;;;;27.60;15.15;;;;;;;1.01;54.61;94111.72;5008603;28;20033;-77
2023/03/18 03:39:35;;;;;;;26.42;15.70;;;;;;;1.15;54.90;94139.09;4996447;28;20087;-76
2023/03/18 03:42:00;;;;;;;25.92;16.25;;;;;;;0.97;54.67;94112.44;5009589;28;20030;-78
2023/03/18 03:44:25;;;;;;;25.83;16.98;;;;;;;0.90;54.81;94111.84;5008359;28;20029;-76
2023/03/18 03:46:51;;;;;;;29.92;17.50;;;;;;;0.83;54.93;94122.50;5008728;28;20131;-76
2023/03/18 03:49:17;;;;;;;25.40;16.48;;;;;;;0.75;55.24;94109.84;5011838;28;20437;-78
2023/03/18 03:51:43;;;;;;;21.00;13.15;;;;;;;0.99;54.92;94144.41;5010503;28;20041;-77
2023/03/18 03:54:11;;;;;;;21.58;15.07;;;;;;;1.00;54.52;94140.75;5010077;28;20438;-76
2023/03/18 03:56:38;;;;;;;22.20;14.50;;;;;;;0.90;54.93;94135.41;5008555;28;20029;-77
2023/03/18 03:59:03;;;;;;;26.08;16.25;;;;;;;0.91;54.97;94134.38;5008842;28;20609;-76
2023/03/18 04:01:29;;;;;;;28.95;16.27;;;;;;;0.85;54.98;94122.25;5008927;28;20144;-76
2023/03/18 04:03:55;;;;;;;29.08;16.88;;;;;;;0.93;55.30;94142.78;5006772;28;20076;-77
2023/03/18 04:06:20;;;;;;;33.78;20.05;;;;;;;1.08;55.14;94143.72;5008053;28;20083;-76
2023/03/18 04:08:46;;;;;;;32.25;19.95;;;;;;;1.17;55.02;94131.00;5010129;28;20049;-77
2023/03/18 04:11:11;;;;;;;34.72;19.63;;;;;;;1.11;54.72;94121.50;5009077;28;20033;-77
2023/03/18 04:13:37;;;;;;;28.65;18.83;;;;;;;1.04;55.19;94157.56;5006769;28;20026;-76
2023/03/18 04:16:02;;;;;;;28.30;17.95;;;;;;;0.89;55.30;94133.84;5008279;28;20037;-76
2023/03/18 04:18:27;;;;;;;26.70;17.40;;;;;;;0.85;55.15;94109.16;4992215;28;20731;-76
2023/03/18 04:20:53;;;;;;;25.52;16.35;;;;;;;1.05;54.86;94140.81;5008523;28;20036;-76
2023/03/18 04:23:19;;;;;;;24.33;14.82;;;;;;;0.87;54.60;94126.22;4990481;28;20080;-76
2023/03/18 04:25:46;;;;;;;19.60;12.05;;;;;;;0.93;54.46;94148.03;5006478;28;20064;-77
2023/03/18 04:28:12;;;;;;;16.40;10.85;;;;;;;1.02;54.65;94164.88;5009572;28;20137;-76
2023/03/18 04:30:38;;;;;;;16.23;10.95;;;;;;;0.88;54.79;94154.00;4996125;28;20034;-77
2023/03/18 04:33:04;;;;;;;16.65;11.45;;;;;;;0.93;54.92;94171.59;4996750;28;20500;-76
2023/03/18 04:35:30;;;;;;;18.83;11.55;;;;;;;0.92;54.62;94164.75;4990563;28;20473;-78
2023/03/18 04:37:56;;;;;;;20.52;12.15;;;;;;;0.92;54.75;94175.25;4992122;28;20202;-76
2023/03/18 04:40:21;;;;;;;17.75;12.27;;;;;;;0.94;54.57;94173.16;5008428;28;20029;-76
2023/03/18 04:42:46;;;;;;;21.60;13.80;;;;;;;0.93;54.80;94179.44;5008438;28;20563;-77
2023/03/18 04:45:14;;;;;;;21.23;15.07;;;;;;;0.81;55.11;94158.63;4997935;28;20026;-77
2023/03/18 04:47:40;;;;;;;22.42;16.27;;;;;;;0.98;55.07;94182.13;5007512;28;20060;-76
2023/03/18 04:50:09;;;;;;;28.63;16.48;;;;;;;0.96;55.37;94189.44;4991383;28;20116;-76
2023/03/18 04:52:35;;;;;;;27.52;18.30;;;;;;;0.76;55.62;94169.81;5007542;28;20033;-79
2023/03/18 04:55:00;;;;;;;31.58;19.77;;;;;;;0.83;55.70;94179.31;5007722;28;20120;-77
2023/03/18 04:57:27;;;;;;;28.48;18.65;;;;;;;0.68;56.13;94157.16;5010359;28;20076;-76
2023/03/18 04:59:52;;;;;;;30.27;20.67;;;;;;;0.87;56.25;94181.22;5008691;28;20037;-77
2023/03/18 05:02:18;;;;;;;30.33;18.83;;;;;;;0.74;56.40;94156.16;5012196;28;20046;-77
2023/03/18 05:04:44;;;;;;;30.75;20.05;;;;;;;0.90;56.33;94172.06;5013570;28;20033;-77
2023/03/18 05:07:13;;;;;;;28.00;19.63;;;;;;;0.95;56.51;94165.06;5010087;28;20472;-78
2023/03/18 05:09:38;;;;;;;30.30;19.63;;;;;;;1.13;56.58;94182.31;5011114;28;20044;-76
2023/03/18 05:12:04;;;;;;;33.72;22.08;;;;;;;1.22;56.11;94178.22;5012449;28;20033;-76
2023/03/18 05:14:30;;;;;;;40.53;24.52;;;;;;;1.29;55.99;94189.28;5012479;28;20250;-77
2023/03/18 05:16:55;;;;;;;38.58;27.40;;;;;;;1.19;56.22;94176.84;5011259;28;20227;-77
2023/03/18 05:19:21;;;;;;;41.90;28.70;;;;;;;1.35;56.08;94190.13;5012323;28;20038;-77
2023/03/18 05:21:46;;;;;;;45.28;28.88;;;;;;;1.45;56.12;94192.84;5010056;28;20045;-76
2023/03/18 05:24:12;;;;;;;48.25;30.95;;;;;;;1.31;56.20;94153.16;5010616;28;20037;-77
2023/03/18 05:26:37;;;;;;;45.40;30.60;;;;;;;1.45;56.38;94172.69;5011698;28;20044;-78
2023/03/18 05:29:03;;;;;;;46.78;31.63;;;;;;;1.61;56.45;94182.28;5010711;28;20085;-76
2023/03/18 05:31:28;;;;;;;43.95;30.85;;;;;;;1.37;56.53;94125.16;5012500;28;22039;-77
2023/03/18 05:33:53;;;;;;;44.92;30.92;;;;;;;1.62;56.93;94165.50;5012324;28;21263;-77
2023/03/18 05:36:19;;;;;;;51.03;35.75;;;;;;;1.84;56.71;94172.50;5011123;28;20028;-76
2023/03/18 05:38:44;;;;;;;49.90;33.88;;;;;;;1.99;56.23;94173.47;5010091;28;20029;-77
2023/03/18 05:41:10;;;;;;;56.05;36.67;;;;;;;2.05;56.22;94174.28;5011911;28;20040;-76
2023/03/18 05:43:36;;;;;;;48.20;33.30;;;;;;;2.05;56.17;94179.53;5011445;28;20042;-76
2023/03/18 05:46:03;;;;;;;48.78;31.77;;;;;;;2.05;56.20;94176.91;5010451;28;20639;-77
2023/03/18 05:48:29;;;;;;;46.70;31.20;;;;;;;2.03;56.45;94171.13;4993392;28;20038;-77
2023/03/18 05:50:54;;;;;;;40.47;27.10;;;;;;;2.13;55.71;94186.94;5010420;28;20053;-77
2023/03/18 05:53:21;;;;;;;41.25;25.98;;;;;;;1.98;55.74;94179.75;5009990;28;20707;-76
2023/03/18 05:55:47;;;;;;;41.85;26.67;;;;;;;1.95;56.51;94182.06;5011718;28;20524;-76
2023/03/18 05:58:13;;;;;;;44.58;26.48;;;;;;;1.83;56.47;94171.72;5010089;28;20128;-77
2023/03/18 06:00:38;;;;;;;40.22;27.30;;;;;;;1.87;57.31;94185.94;5011335;28;20492;-76
2023/03/18 06:03:04;;;;;;;40.75;27.08;;;;;;;2.08;56.67;94197.41;5010015;28;20094;-76
2023/03/18 06:05:30;;;;;;;41.35;29.83;;;;;;;2.11;56.32;94196.88;4994416;28;20036;-78
2023/03/18 06:07:56;;;;;;;89.60;56.08;;;;;;;1.37;58.90;94215.06;5008059;28;20037;-76
2023/03/18 06:10:23;;;;;;;54.75;40.83;;;;;;;1.35;58.96;94209.25;5012184;28;20097;-77
2023/03/18 06:12:49;;;;;;;54.53;40.50;;;;;;;1.97;57.48;94219.31;4996350;28;20048;-76
2023/03/18 06:15:16;;;;;;;42.45;32.50;;;;;;;2.06;56.22;94207.34;5012608;28;20026;-76
2023/03/18 06:17:41;;;;;;;46.35;31.90;;;;;;;2.10;56.12;94221.56;5008995;28;20130;-76
2023/03/18 06:20:10;;;;;;;42.80;28.83;;;;;;;2.10;56.19;94224.19;4992204;28;20545;-77
2023/03/18 06:22:36;;;;;;;39.80;26.65;;;;;;;2.29;55.70;94214.88;4995960;28;20041;-77
2023/03/18 06:25:03;;;;;;;41.03;26.58;;;;;;;2.12;55.83;94200.28;5011281;28;20045;-77
2023/03/18 06:27:29;;;;;;;91.57;43.65;;;;;;;2.33;55.41;94208.09;5008362;28;20041;-76
2023/03/18 06:29:55;;;;;;;37.30;27.33;;;;;;;1.66;57.30;94213.78;5010799;28;20398;-76
2023/03/18 06:32:20;;;;;;;41.17;26.65;;;;;;;1.41;58.03;94178.66;5010709;28;20063;-76
2023/03/18 06:34:46;;;;;;;35.53;26.17;;;;;;;1.36;58.14;94192.50;5009289;28;20049;-76
2023/03/18 06:37:11;;;;;;;41.67;27.48;;;;;;;2.13;57.55;94197.44;5010767;28;20517;-77
2023/03/18 06:39:37;;;;;;;35.42;23.83;;;;;;;2.41;55.32;94186.59;5009460;28;20037;-77
2023/03/18 06:42:03;;;;;;;34.85;21.88;;;;;;;2.07;56.57;94187.94;5009849;28;20547;-76
2023/03/18 06:44:29;;;;;;;32.70;22.63;;;;;;;2.17;55.63;94177.50;5011942;28;20076;-77
2023/03/18 06:46:55;;;;;;;31.80;21.17;;;;;;;2.38;55.02;94162.69;5010803;28;20041;-77
2023/03/18 06:49:20;;;;;;;25.40;18.58;;;;;;;2.34;55.27;94161.63;4990531;28;20096;-76
2023/03/18 06:51:47;;;;;;;28.83;19.77;;;;;;;2.47;55.26;94155.94;5010166;28;20054;-76
2023/03/18 06:54:13;;;;;;;31.85;19.88;;;;;;;2.38;54.10;94118.06;5010815;28;20056;-76
2023/03/18 06:56:40;;;;;;;33.67;20.08;;;;;;;2.53;54.77;94175.94;5010854;28;20021;-77
2023/03/18 06:59:06;;;;;;;39.33;22.80;;;;;;;2.35;55.03;94150.84;5009398;28;20547;-77
2023/03/18 07:01:32;;;;;;;28.35;20.77;;;;;;;1.98;57.29;94168.44;5008158;28;20104;-76
2023/03/18 07:03:59;;;;;;;29.70;20.05;;;;;;;2.59;56.57;94179.38;5007943;28;20494;-76
2023/03/18 07:06:25;;;;;;;26.15;18.33;;;;;;;1.61;57.44;94161.31;5009832;28;20064;-76
2023/03/18 07:08:53;;;;;;;29.15;18.77;;;;;;;2.30;55.90;94181.56;5007768;28;20132;-77
2023/03/18 07:11:18;;;;;;;27.25;19.38;;;;;;;2.63;55.59;94175.19;4992702;28;20510;-76
2023/03/18 07:13:44;;;;;;;34.13;19.40;;;;;;;2.95;54.79;94173.22;5007864;28;20041;-77
2023/03/18 07:16:09;;;;;;;26.48;18.25;;;;;;;3.12;54.41;94171.22;4990464;28;20038;-76
2023/03/18 07:18:36;;;;;;;22.98;16.08;;;;;;;2.62;54.31;94157.84;4996790;28;20044;-77
2023/03/18 07:21:02;;;;;;;23.45;16.92;;;;;;;2.15;55.79;94189.31;5009221;28;20022;-77
2023/03/18 07:23:28;;;;;;;25.60;16.90;;;;;;;2.48;55.60;94163.56;4991637;28;20017;-78
2023/03/18 07:25:54;;;;;;;26.20;17.27;;;;;;;2.96;55.04;94175.63;5007893;28;20037;-76
2023/03/18 07:28:19;;;;;;;26.35;16.55;;;;;;;3.26;52.87;94169.69;5006279;28;20623;-77
2023/03/18 07:30:45;;;;;;;37.55;25.83;;;;;;;3.32;53.70;94171.28;5008982;28;20045;-77
2023/03/18 07:33:11;;;;;;;41.55;27.75;;;;;;;2.72;55.77;94178.91;5012082;28;21032;-77
2023/03/18 07:35:39;;;;;;;34.80;24.25;;;;;;;1.95;57.36;94169.75;5008626;28;20040;-77
2023/03/18 07:38:05;;;;;;;45.30;30.50;;;;;;;2.06;59.19;94170.59;5009428;28;20041;-77
2023/03/18 07:40:31;;;;;;;45.80;28.88;;;;;;;2.11;57.45;94154.91;5007579;28;20052;-76
2023/03/18 07:42:56;;;;;;;47.38;31.25;;;;;;;2.45;58.05;94192.94;5009389;28;20041;-77
2023/03/18 07:45:22;;;;;;;47.53;31.65;;;;;;;2.88;56.52;94185.84;5007143;28;20121;-77
2023/03/18 07:47:48;;;;;;;46.45;31.98;;;;;;;2.49;56.68;94167.78;5002050;28;20028;-77
2023/03/18 07:50:14;;;;;;;47.22;30.25;;;;;;;2.82;56.03;94163.19;4994485;28;20524;-76
2023/03/18 07:52:39;;;;;;;44.20;30.88;;;;;;;3.21;55.32;94188.06;5002517;28;20052;-77
2023/03/18 07:55:05;;;;;;;52.65;29.70;;;;;;;3.26;55.42;94189.91;4986752;28;20474;-76
2023/03/18 07:57:31;;;;;;;43.90;31.02;;;;;;;3.41;54.01;94192.59;4997618;28;20116;-76
2023/03/18 07:59:56;;;;;;;56.60;34.60;;;;;;;3.46;54.65;94194.44;5005078;28;20588;-76
2023/03/18 08:02:22;;;;;;;45.60;31.58;;;;;;;3.06;56.15;94200.34;5004609;28;20033;-76
2023/03/18 08:04:48;;;;;;;47.15;31.48;;;;;;;3.45;54.10;94187.59;5004638;28;20069;-77
2023/03/18 08:07:13;;;;;;;50.42;32.15;;;;;;;3.46;53.37;94168.16;5006481;28;20125;-77
2023/03/18 08:09:39;;;;;;;46.38;30.23;;;;;;;3.59;53.16;94152.66;5003793;28;20041;-76
2023/03/18 08:12:05;;;;;;;46.03;29.98;;;;;;;3.11;54.48;94163.56;5003100;28;20041;-76
2023/03/18 08:14:30;;;;;;;51.25;30.98;;;;;;;2.86;56.20;94148.50;5004460;28;20021;-77
2023/03/18 08:16:56;;;;;;;53.95;32.00;;;;;;;3.24;55.08;94129.72;5004839;28;20087;-76
2023/03/18 08:19:22;;;;;;;50.55;32.10;;;;;;;3.59;54.13;94162.38;5003767;28;20132;-76
2023/03/18 08:21:47;;;;;;;50.80;31.60;;;;;;;3.60;54.23;94100.84;4999767;28;20457;-76
2023/03/18 08:24:13;;;;;;;49.65;31.35;;;;;;;4.11;53.23;94157.69;5002872;28;20061;-77
2023/03/18 08:26:39;;;;;;;43.78;30.10;;;;;;;3.93;54.37;94175.84;5002853;28;20034;-76
2023/03/18 08:29:04;;;;;;;53.60;29.98;;;;;;;3.33;55.34;94190.47;5007425;28;20476;-77
2023/03/18 08:31:30;;;;;;;52.80;34.60;;;;;;;2.76;56.91;94195.72;5004203;28;20096;-77
2023/03/18 08:33:58;;;;;;;59.88;34.83;;;;;;;2.63;58.00;94177.81;4989311;28;20317;-76
2023/03/18 08:36:24;;;;;;;50.83;32.33;;;;;;;2.58;57.74;94198.78;5003949;28;20042;-76
2023/03/18 08:38:51;;;;;;;50.65;33.15;;;;;;;2.12;58.25;94181.94;5005402;28;20035;-76
2023/03/18 08:41:17;;;;;;;52.00;32.47;;;;;;;2.12;58.14;94174.06;5009703;28;20074;-76
2023/03/18 08:43:43;;;;;;;56.38;35.17;;;;;;;2.73;58.68;94191.78;5007491;28;20528;-77
2023/03/18 08:46:09;;;;;;;50.95;31.27;;;;;;;2.47;57.49;94196.09;5007299;28;20033;-77
2023/03/18 08:48:35;;;;;;;45.88;31.23;;;;;;;2.93;57.17;94188.47;5007140;28;20037;-77
2023/03/18 08:51:06;;;;;;;46.78;31.90;;;;;;;2.99;55.35;94194.56;5006714;28;20080;-77
2023/03/18 08:53:32;;;;;;;45.45;31.75;;;;;;;3.36;55.79;94190.75;5007965;28;20046;-76
2023/03/18 08:55:58;;;;;;;53.72;32.30;;;;;;;3.48;55.35;94197.63;5007053;28;20655;-77
2023/03/18 08:58:23;;;;;;;42.60;28.00;;;;;;;3.52;54.50;94185.53;4997675;28;20177;-77
2023/03/18 09:00:49;;;;;;;41.97;31.48;;;;;;;3.28;55.48;94193.84;5006808;28;20149;-76
2023/03/18 09:03:15;;;;;;;38.38;26.42;;;;;;;3.23;56.11;94196.47;5010298;28;20036;-77
2023/03/18 09:05:40;;;;;;;41.17;27.48;;;;;;;2.85;54.60;94181.06;4995395;28;20382;-76
2023/03/18 09:08:06;;;;;;;42.88;28.52;;;;;;;3.56;55.78;94205.00;5007742;28;20041;-77
2023/03/18 09:10:32;;;;;;;40.53;25.90;;;;;;;3.32;53.88;94168.66;5011589;28;20037;-77
2023/03/18 09:12:59;;;;;;;41.83;26.23;;;;;;;3.06;54.83;94203.78;5008717;28;20150;-77
2023/03/18 09:15:26;;;;;;;41.22;26.13;;;;;;;3.46;54.25;94181.31;5013610;28;20684;-76
2023/03/18 09:17:51;;;;;;;40.53;25.48;;;;;;;4.07;52.77;94201.38;5012923;28;20032;-77
2023/03/18 09:20:17;;;;;;;35.33;23.58;;;;;;;3.93;51.94;94205.59;5010156;28;20529;-77
2023/03/18 09:22:44;;;;;;;35.75;24.00;;;;;;;4.17;51.96;94184.78;5008490;28;20058;-76
2023/03/18 09:25:10;;;;;;;36.90;23.75;;;;;;;4.04;52.49;94201.91;5004416;28;20173;-77
2023/03/18 09:27:36;;;;;;;31.58;22.35;;;;;;;4.33;50.24;94177.72;5009652;28;20486;-76
2023/03/18 09:30:02;;;;;;;23.10;15.40;;;;;;;4.32;48.51;94199.81;5008454;28;20279;-76
2023/03/18 09:32:28;;;;;;;25.77;17.67;;;;;;;4.07;49.52;94185.59;5011643;28;20087;-77
2023/03/18 09:34:54;;;;;;;23.25;15.90;;;;;;;4.10;48.93;94164.03;5007417;28;20160;-77
2023/03/18 09:37:20;;;;;;;21.73;16.00;;;;;;;4.71;48.38;94185.03;4991099;28;20044;-77
2023/03/18 09:39:49;;;;;;;21.38;12.90;;;;;;;3.96;46.93;94175.34;4995587;28;20121;-77
2023/03/18 09:42:27;;;;;;;11.65;8.85;;;;;;;3.71;46.31;94194.50;4989518;28;20161;-76
2023/03/18 09:44:57;;;;;;;9.80;7.70;;;;;;;3.80;46.37;94195.56;5009578;28;20029;-76
2023/03/18 09:47:31;;;;;;;10.63;8.20;;;;;;;3.97;46.74;94201.38;5009738;28;20313;-78
2023/03/18 09:50:31;;;;;;;14.82;8.23;;;;;;;4.19;46.30;94196.66;4994623;28;20041;-76
2023/03/18 09:53:12;;;;;;;10.80;7.53;;;;;;;4.39;46.16;94203.00;5009440;28;20069;-76
2023/03/18 09:55:51;;;;;;;9.20;7.65;;;;;;;4.11;46.29;94189.25;5008038;28;20041;-76
2023/03/18 09:58:23;;;;;;;8.93;6.47;;;;;;;3.90;46.16;94161.38;4999441;28;20037;-77
2023/03/18 10:00:53;;;;;;;12.90;7.00;;;;;;;3.93;46.43;94167.94;4998167;28;20052;-76
2023/03/18 10:03:46;;;;;;;14.45;9.27;;;;;;;3.78;47.46;94201.09;4993410;28;20040;-77
2023/03/18 10:06:15;;;;;;;10.30;7.30;;;;;;;4.11;47.90;94191.13;5007467;28;20030;-76
2023/03/18 10:08:53;;;;;;;12.45;9.25;;;;;;;4.11;47.97;94184.00;5010610;28;20033;-75
2023/03/18 10:11:22;;;;;;;8.93;7.10;;;;;;;3.83;47.50;94195.03;5011117;28;20627;-77
2023/03/18 10:14:10;;;;;;;10.05;6.57;;;;;;;3.80;46.29;94190.31;5011710;28;20417;-78
2023/03/18 10:16:53;;;;;;;11.05;7.20;;;;;;;3.92;46.02;94197.94;4996979;28;20044;-78
2023/03/18 10:19:19;;;;;;;9.75;5.80;;;;;;;3.67;44.80;94185.56;5009359;28;20081;-77
2023/03/18 10:22:08;;;;;;;5.80;4.07;;;;;;;3.70;43.15;94200.81;4992536;28;20169;-78
2023/03/18 10:24:56;;;;;;;7.35;4.85;;;;;;;3.66;44.74;94189.25;4990768;28;20073;-78
2023/03/18 10:27:37;;;;;;;5.75;4.03;;;;;;;3.80;42.87;94198.22;4988585;28;20113;-77
2023/03/18 10:30:16;;;;;;;5.93;4.28;;;;;;;3.88;42.51;94187.16;4990918;28;20025;-77
2023/03/18 10:32:49;;;;;;;5.90;3.58;;;;;;;3.99;41.32;94191.38;4990551;28;20393;-78
2023/03/18 10:35:27;;;;;;;9.77;4.65;;;;;;;4.35;42.51;94194.06;4978541;28;20034;-77
2023/03/18 10:38:01;;;;;;;5.32;3.15;;;;;;;4.08;40.83;94181.91;4971213;28;20548;-76
2023/03/18 10:40:34;;;;;;;6.40;4.80;;;;;;;4.21;41.46;94183.22;4989703;28;20046;-76
2023/03/18 10:43:01;;;;;;;4.88;4.05;;;;;;;4.35;40.63;94159.81;4989563;28;20064;-78
2023/03/18 10:45:32;;;;;;;4.95;3.47;;;;;;;4.69;41.06;94184.53;4988822;28;20773;-77
2023/03/18 10:48:09;;;;;;;5.97;4.15;;;;;;;4.90;40.70;94187.88;4988872;28;20486;-78
2023/03/18 10:50:50;;;;;;;7.03;4.97;;;;;;;4.63;40.92;94182.94;4990111;28;20154;-77
2023/03/18 10:53:26;;;;;;;6.05;4.80;;;;;;;4.54;41.34;94187.19;4977473;28;20165;-76
2023/03/18 10:56:06;;;;;;;8.02;5.35;;;;;;;4.70;39.99;94157.09;4974235;28;20038;-76
2023/03/18 10:58:32;;;;;;;6.22;4.60;;;;;;;4.70;41.16;94178.19;4966804;28;20030;-77
2023/03/18 11:00:58;;;;;;;7.88;5.35;;;;;;;4.37;41.14;94178.75;4987188;28;20038;-77
2023/03/18 11:03:26;;;;;;;7.93;4.60;;;;;;;4.44;41.27;94169.56;4970045;28;20101;-77
2023/03/18 11:05:54;;;;;;;9.50;6.63;;;;;;;4.55;40.73;94175.59;4977490;28;20521;-77
2023/03/18 11:08:38;;;;;;;8.75;5.63;;;;;;;4.06;41.25;94162.94;4987770;28;20058;-78
2023/03/18 11:11:26;;;;;;;6.47;5.60;;;;;;;4.14;40.39;94172.97;4989163;28;20121;-78
2023/03/18 11:13:56;;;;;;;9.65;5.60;;;;;;;4.38;40.59;94178.50;4972511;28;20046;-77
2023/03/18 11:16:38;;;;;;;8.02;5.63;;;;;;;4.23;40.24;94168.75;4985594;28;20038;-78
2023/03/18 11:19:19;;;;;;;10.23;6.82;;;;;;;3.95;40.92;94153.50;4986874;28;20042;-77
2023/03/18 11:21:45;;;;;;;5.55;4.50;;;;;;;4.23;42.19;94170.59;4986022;28;20527;-77
2023/03/18 11:24:34;;;;;;;12.15;4.85;;;;;;;4.34;44.34;94150.34;4976686;28;20148;-78
2023/03/18 11:27:01;;;;;;;7.38;5.47;;;;;;;4.49;44.42;94168.75;4994298;28;20722;-77
2023/03/18 11:29:32;;;;;;;8.75;4.70;;;;;;;4.00;43.98;94135.06;4988993;28;20149;-78
2023/03/18 11:31:58;;;;;;;10.15;5.45;;;;;;;4.15;45.16;94158.75;5006184;28;20304;-77
2023/03/18 11:34:26;;;;;;;4.90;4.38;;;;;;;3.70;43.86;94122.69;5008050;28;20065;-78
2023/03/18 11:36:54;;;;;;;6.07;4.22;;;;;;;3.92;43.11;94161.88;5008192;28;20081;-78